sensor_id;sensor_type;location;lat;lon;timestamp;temperature;humidity
46508;DHT22;32223;53.654;10.014;2023-10-13T00:00:30;11.90;99.90
46508;DHT22;32223;53.654;10.014;2023-10-13T00:02:58;11.90;99.90
46508;DHT22;32223;53.654;10.014;2023-10-13T00:05:27;11.90;99.90
46508;DHT22;32223;53.654;10.014;2023-10-13T00:07:53;11.90;99.90
46508;DHT22;32223;53.654;10.014;2023-10-13T00:10:19;11.90;99.90
46508;DHT22;32223;53.654;10.014;2023-10-13T00:12:45;11.90;99.90
46508;DHT22;32223;53.654;10.014;2023-10-13T00:15:17;11.90;99.90
46508;DHT22;32223;53.654;10.014;2023-10-13T00:17:43;11.90;99.90
46508;DHT22;32223;53.654;10.014;2023-10-13T00:20:09;11.90;99.90
46508;DHT22;32223;53.654;10.014;2023-10-13T00:22:41;12.00;99.90
46508;DHT22;32223;53.654;10.014;2023-10-13T00:25:07;12.00;99.90
46508;DHT22;32223;53.654;10.014;2023-10-13T00:27:40;12.00;99.90
46508;DHT22;32223;53.654;10.014;2023-10-13T00:30:07;12.00;99.90
46508;DHT22;32223;53.654;10.014;2023-10-13T00:32:58;12.00;99.90
46508;DHT22;32223;53.654;10.014;2023-10-13T00:35:26;12.00;99.90
46508;DHT22;32223;53.654;10.014;2023-10-13T00:37:52;12.10;99.90
46508;DHT22;32223;53.654;10.014;2023-10-13T00:40:22;12.10;99.90
46508;DHT22;32223;53.654;10.014;2023-10-13T00:42:58;12.10;99.90
46508;DHT22;32223;53.654;10.014;2023-10-13T00:45:43;12.10;99.90
46508;DHT22;32223;53.654;10.014;2023-10-13T00:48:11;12.10;99.90
46508;DHT22;32223;53.654;10.014;2023-10-13T00:50:38;12.20;99.90
46508;DHT22;32223;53.654;10.014;2023-10-13T00:53:04;12.20;99.90
46508;DHT22;32223;53.654;10.014;2023-10-13T00:55:30;12.20;99.90
46508;DHT22;32223;53.654;10.014;2023-10-13T00:57:59;12.30;99.90
46508;DHT22;32223;53.654;10.014;2023-10-13T01:00:29;12.30;99.90
46508;DHT22;32223;53.654;10.014;2023-10-13T01:02:55;12.30;99.90
46508;DHT22;32223;53.654;10.014;2023-10-13T01:05:22;12.30;99.90
46508;DHT22;32223;53.654;10.014;2023-10-13T01:07:49;12.30;99.90
46508;DHT22;32223;53.654;10.014;2023-10-13T01:10:19;12.30;99.90
46508;DHT22;32223;53.654;10.014;2023-10-13T01:12:46;12.40;99.90
46508;DHT22;32223;53.654;10.014;2023-10-13T01:15:12;12.30;99.90
46508;DHT22;32223;53.654;10.014;2023-10-13T01:17:42;12.40;99.90
46508;DHT22;32223;53.654;10.014;2023-10-13T01:20:10;12.40;99.90
46508;DHT22;32223;53.654;10.014;2023-10-13T01:22:38;12.40;99.90
46508;DHT22;32223;53.654;10.014;2023-10-13T01:25:03;12.50;99.90
46508;DHT22;32223;53.654;10.014;2023-10-13T01:27:36;12.50;99.90
46508;DHT22;32223;53.654;10.014;2023-10-13T01:30:04;12.50;99.90
46508;DHT22;32223;53.654;10.014;2023-10-13T01:32:51;12.50;99.90
46508;DHT22;32223;53.654;10.014;2023-10-13T01:35:19;12.60;99.90
46508;DHT22;32223;53.654;10.014;2023-10-13T01:37:45;12.50;99.90
46508;DHT22;32223;53.654;10.014;2023-10-13T01:40:11;12.60;99.90
46508;DHT22;32223;53.654;10.014;2023-10-13T01:42:39;12.60;99.90
46508;DHT22;32223;53.654;10.014;2023-10-13T01:45:05;12.50;99.90
46508;DHT22;32223;53.654;10.014;2023-10-13T01:47:32;12.60;99.90
46508;DHT22;32223;53.654;10.014;2023-10-13T01:50:01;12.60;99.90
46508;DHT22;32223;53.654;10.014;2023-10-13T01:52:40;12.60;99.90
46508;DHT22;32223;53.654;10.014;2023-10-13T01:55:07;12.70;99.90
46508;DHT22;32223;53.654;10.014;2023-10-13T01:57:35;12.70;99.90
46508;DHT22;32223;53.654;10.014;2023-10-13T02:00:01;12.70;99.90
46508;DHT22;32223;53.654;10.014;2023-10-13T02:02:36;12.70;99.90
46508;DHT22;32223;53.654;10.014;2023-10-13T02:05:08;12.70;99.90
46508;DHT22;32223;53.654;10.014;2023-10-13T02:07:33;12.80;99.90
46508;DHT22;32223;53.654;10.014;2023-10-13T02:10:00;12.70;99.90
46508;DHT22;32223;53.654;10.014;2023-10-13T02:12:32;12.70;99.90
46508;DHT22;32223;53.654;10.014;2023-10-13T02:15:11;12.80;99.90
46508;DHT22;32223;53.654;10.014;2023-10-13T02:17:46;12.80;99.90
46508;DHT22;32223;53.654;10.014;2023-10-13T02:20:17;12.80;99.90
46508;DHT22;32223;53.654;10.014;2023-10-13T02:22:44;12.90;99.90
46508;DHT22;32223;53.654;10.014;2023-10-13T02:25:16;12.80;99.90
46508;DHT22;32223;53.654;10.014;2023-10-13T02:28:20;12.90;99.90
46508;DHT22;32223;53.654;10.014;2023-10-13T02:30:53;12.90;99.90
46508;DHT22;32223;53.654;10.014;2023-10-13T02:33:19;12.80;99.90
46508;DHT22;32223;53.654;10.014;2023-10-13T02:35:50;12.90;99.90
46508;DHT22;32223;53.654;10.014;2023-10-13T02:38:20;12.90;99.90
46508;DHT22;32223;53.654;10.014;2023-10-13T02:40:53;12.90;99.90
46508;DHT22;32223;53.654;10.014;2023-10-13T02:43:21;13.00;99.90
46508;DHT22;32223;53.654;10.014;2023-10-13T02:45:52;13.00;99.90
46508;DHT22;32223;53.654;10.014;2023-10-13T02:48:24;13.00;99.90
46508;DHT22;32223;53.654;10.014;2023-10-13T02:50:58;13.00;99.90
46508;DHT22;32223;53.654;10.014;2023-10-13T02:53:30;13.00;99.90
46508;DHT22;32223;53.654;10.014;2023-10-13T02:55:56;13.00;99.90
46508;DHT22;32223;53.654;10.014;2023-10-13T02:58:23;13.00;99.90
46508;DHT22;32223;53.654;10.014;2023-10-13T03:01:06;13.00;99.90
46508;DHT22;32223;53.654;10.014;2023-10-13T03:03:47;13.00;99.90
46508;DHT22;32223;53.654;10.014;2023-10-13T03:06:16;13.00;99.90
46508;DHT22;32223;53.654;10.014;2023-10-13T03:08:42;13.10;99.90
46508;DHT22;32223;53.654;10.014;2023-10-13T03:11:09;13.10;99.90
46508;DHT22;32223;53.654;10.014;2023-10-13T03:13:36;13.10;99.90
46508;DHT22;32223;53.654;10.014;2023-10-13T03:16:11;13.10;99.90
46508;DHT22;32223;53.654;10.014;2023-10-13T03:18:37;13.10;99.90
46508;DHT22;32223;53.654;10.014;2023-10-13T03:21:03;13.10;99.90
46508;DHT22;32223;53.654;10.014;2023-10-13T03:23:29;13.20;99.90
46508;DHT22;32223;53.654;10.014;2023-10-13T03:26:10;13.20;99.90
46508;DHT22;32223;53.654;10.014;2023-10-13T03:28:36;13.20;99.90
46508;DHT22;32223;53.654;10.014;2023-10-13T03:31:03;13.20;99.90
46508;DHT22;32223;53.654;10.014;2023-10-13T03:33:29;13.30;99.90
46508;DHT22;32223;53.654;10.014;2023-10-13T03:35:58;13.30;99.90
46508;DHT22;32223;53.654;10.014;2023-10-13T03:38:31;13.30;99.90
46508;DHT22;32223;53.654;10.014;2023-10-13T03:41:01;13.30;99.90
46508;DHT22;32223;53.654;10.014;2023-10-13T03:43:37;13.40;99.90
46508;DHT22;32223;53.654;10.014;2023-10-13T03:46:10;13.40;99.90
46508;DHT22;32223;53.654;10.014;2023-10-13T03:48:36;13.40;99.90
46508;DHT22;32223;53.654;10.014;2023-10-13T03:51:17;13.50;99.90
46508;DHT22;32223;53.654;10.014;2023-10-13T03:53:43;13.50;99.90
46508;DHT22;32223;53.654;10.014;2023-10-13T03:56:19;13.40;99.90
46508;DHT22;32223;53.654;10.014;2023-10-13T03:58:57;13.50;99.90
46508;DHT22;32223;53.654;10.014;2023-10-13T04:01:31;13.50;99.90
46508;DHT22;32223;53.654;10.014;2023-10-13T04:03:58;13.50;99.90
46508;DHT22;32223;53.654;10.014;2023-10-13T04:06:35;13.50;99.90
46508;DHT22;32223;53.654;10.014;2023-10-13T04:09:17;13.50;99.90
46508;DHT22;32223;53.654;10.014;2023-10-13T04:12:01;13.60;99.90
46508;DHT22;32223;53.654;10.014;2023-10-13T04:14:30;13.60;99.90
46508;DHT22;32223;53.654;10.014;2023-10-13T04:17:15;13.60;99.90
46508;DHT22;32223;53.654;10.014;2023-10-13T04:19:48;13.70;99.90
46508;DHT22;32223;53.654;10.014;2023-10-13T04:22:42;13.70;99.90
46508;DHT22;32223;53.654;10.014;2023-10-13T04:27:54;13.70;99.90
46508;DHT22;32223;53.654;10.014;2023-10-13T04:33:24;13.80;99.90
46508;DHT22;32223;53.654;10.014;2023-10-13T04:36:07;13.80;99.90
46508;DHT22;32223;53.654;10.014;2023-10-13T04:38:58;13.90;99.90
46508;DHT22;32223;53.654;10.014;2023-10-13T04:41:35;13.90;99.90
46508;DHT22;32223;53.654;10.014;2023-10-13T04:44:10;13.90;99.90
46508;DHT22;32223;53.654;10.014;2023-10-13T04:46:56;13.90;99.90
46508;DHT22;32223;53.654;10.014;2023-10-13T04:49:24;14.00;99.90
46508;DHT22;32223;53.654;10.014;2023-10-13T04:52:09;14.00;99.90
46508;DHT22;32223;53.654;10.014;2023-10-13T04:54:41;14.00;99.90
46508;DHT22;32223;53.654;10.014;2023-10-13T04:57:13;14.00;99.90
46508;DHT22;32223;53.654;10.014;2023-10-13T05:00:13;14.10;99.90
46508;DHT22;32223;53.654;10.014;2023-10-13T05:02:46;14.10;99.90
46508;DHT22;32223;53.654;10.014;2023-10-13T05:05:44;14.10;99.90
46508;DHT22;32223;53.654;10.014;2023-10-13T05:08:28;14.20;99.90
46508;DHT22;32223;53.654;10.014;2023-10-13T05:11:29;14.20;99.90
46508;DHT22;32223;53.654;10.014;2023-10-13T05:14:13;14.20;99.90
46508;DHT22;32223;53.654;10.014;2023-10-13T05:16:57;14.30;99.90
46508;DHT22;32223;53.654;10.014;2023-10-13T05:19:41;14.30;99.90
46508;DHT22;32223;53.654;10.014;2023-10-13T05:22:25;14.30;99.90
46508;DHT22;32223;53.654;10.014;2023-10-13T05:25:09;14.40;99.90
46508;DHT22;32223;53.654;10.014;2023-10-13T05:27:53;14.40;99.90
46508;DHT22;32223;53.654;10.014;2023-10-13T05:30:40;14.50;99.90
46508;DHT22;32223;53.654;10.014;2023-10-13T05:33:25;14.50;99.90
46508;DHT22;32223;53.654;10.014;2023-10-13T05:36:11;14.50;99.90
46508;DHT22;32223;53.654;10.014;2023-10-13T05:39:11;14.60;99.90
46508;DHT22;32223;53.654;10.014;2023-10-13T05:41:56;14.60;99.90
46508;DHT22;32223;53.654;10.014;2023-10-13T05:44:40;14.70;99.90
46508;DHT22;32223;53.654;10.014;2023-10-13T05:47:24;14.70;99.90
46508;DHT22;32223;53.654;10.014;2023-10-13T05:50:13;14.80;99.90
46508;DHT22;32223;53.654;10.014;2023-10-13T05:52:55;14.80;99.90
46508;DHT22;32223;53.654;10.014;2023-10-13T05:55:30;14.90;99.90
46508;DHT22;32223;53.654;10.014;2023-10-13T05:58:15;14.90;99.90
46508;DHT22;32223;53.654;10.014;2023-10-13T06:00:59;15.10;99.90
46508;DHT22;32223;53.654;10.014;2023-10-13T06:03:44;15.10;99.90
46508;DHT22;32223;53.654;10.014;2023-10-13T06:06:28;15.30;99.90
46508;DHT22;32223;53.654;10.014;2023-10-13T06:09:13;15.30;99.90
46508;DHT22;32223;53.654;10.014;2023-10-13T06:11:57;15.40;99.90
46508;DHT22;32223;53.654;10.014;2023-10-13T06:14:45;15.50;99.90
46508;DHT22;32223;53.654;10.014;2023-10-13T06:17:29;15.50;99.90
46508;DHT22;32223;53.654;10.014;2023-10-13T06:20:13;15.60;99.90
46508;DHT22;32223;53.654;10.014;2023-10-13T06:22:57;15.70;99.90
46508;DHT22;32223;53.654;10.014;2023-10-13T06:25:41;15.70;99.90
46508;DHT22;32223;53.654;10.014;2023-10-13T06:28:25;15.80;99.90
46508;DHT22;32223;53.654;10.014;2023-10-13T06:31:06;15.80;99.90
46508;DHT22;32223;53.654;10.014;2023-10-13T06:33:32;15.80;99.90
46508;DHT22;32223;53.654;10.014;2023-10-13T06:36:02;15.80;99.90
46508;DHT22;32223;53.654;10.014;2023-10-13T06:38:29;15.80;99.90
46508;DHT22;32223;53.654;10.014;2023-10-13T06:41:18;15.90;99.90
46508;DHT22;32223;53.654;10.014;2023-10-13T06:43:55;15.90;99.90
46508;DHT22;32223;53.654;10.014;2023-10-13T06:46:30;15.90;99.90
46508;DHT22;32223;53.654;10.014;2023-10-13T06:48:59;16.00;99.90
46508;DHT22;32223;53.654;10.014;2023-10-13T06:51:25;16.00;99.90
46508;DHT22;32223;53.654;10.014;2023-10-13T06:53:56;16.00;99.90
46508;DHT22;32223;53.654;10.014;2023-10-13T06:56:22;16.00;99.90
46508;DHT22;32223;53.654;10.014;2023-10-13T06:58:52;16.00;99.90
46508;DHT22;32223;53.654;10.014;2023-10-13T07:01:27;16.00;99.90
46508;DHT22;32223;53.654;10.014;2023-10-13T07:03:53;16.00;99.90
46508;DHT22;32223;53.654;10.014;2023-10-13T07:06:22;16.10;99.90
46508;DHT22;32223;53.654;10.014;2023-10-13T07:08:48;16.10;99.90
46508;DHT22;32223;53.654;10.014;2023-10-13T07:11:25;16.10;99.90
46508;DHT22;32223;53.654;10.014;2023-10-13T07:14:03;16.10;99.90
46508;DHT22;32223;53.654;10.014;2023-10-13T07:16:56;16.10;99.90
46508;DHT22;32223;53.654;10.014;2023-10-13T07:19:26;16.10;99.90
46508;DHT22;32223;53.654;10.014;2023-10-13T07:21:58;16.10;99.90
46508;DHT22;32223;53.654;10.014;2023-10-13T07:24:26;16.10;99.90
46508;DHT22;32223;53.654;10.014;2023-10-13T07:26:57;16.10;99.90
46508;DHT22;32223;53.654;10.014;2023-10-13T07:29:29;16.20;99.90
46508;DHT22;32223;53.654;10.014;2023-10-13T07:31:54;16.10;99.90
46508;DHT22;32223;53.654;10.014;2023-10-13T07:34:20;16.10;99.90
46508;DHT22;32223;53.654;10.014;2023-10-13T07:36:53;16.20;99.90
46508;DHT22;32223;53.654;10.014;2023-10-13T07:39:25;16.20;99.90
46508;DHT22;32223;53.654;10.014;2023-10-13T07:41:52;16.20;99.90
46508;DHT22;32223;53.654;10.014;2023-10-13T07:44:29;16.20;99.90
46508;DHT22;32223;53.654;10.014;2023-10-13T07:46:59;16.20;99.90
46508;DHT22;32223;53.654;10.014;2023-10-13T07:49:32;16.20;99.90
46508;DHT22;32223;53.654;10.014;2023-10-13T07:52:02;16.20;99.90
46508;DHT22;32223;53.654;10.014;2023-10-13T07:55:00;16.20;99.90
46508;DHT22;32223;53.654;10.014;2023-10-13T07:57:45;16.20;99.90
46508;DHT22;32223;53.654;10.014;2023-10-13T08:00:21;16.20;99.90
46508;DHT22;32223;53.654;10.014;2023-10-13T08:03:06;16.20;99.90
46508;DHT22;32223;53.654;10.014;2023-10-13T08:05:41;16.20;99.90
46508;DHT22;32223;53.654;10.014;2023-10-13T08:08:27;16.20;99.90
46508;DHT22;32223;53.654;10.014;2023-10-13T08:11:01;16.20;99.90
46508;DHT22;32223;53.654;10.014;2023-10-13T08:13:35;16.20;99.90
46508;DHT22;32223;53.654;10.014;2023-10-13T08:16:02;16.20;99.90
46508;DHT22;32223;53.654;10.014;2023-10-13T08:18:33;16.20;99.90
46508;DHT22;32223;53.654;10.014;2023-10-13T08:21:02;16.30;99.90
46508;DHT22;32223;53.654;10.014;2023-10-13T08:23:32;16.30;99.90
46508;DHT22;32223;53.654;10.014;2023-10-13T08:26:28;16.30;99.90
46508;DHT22;32223;53.654;10.014;2023-10-13T08:29:12;16.20;99.90
46508;DHT22;32223;53.654;10.014;2023-10-13T08:31:48;16.20;99.90
46508;DHT22;32223;53.654;10.014;2023-10-13T08:34:33;16.20;99.90
46508;DHT22;32223;53.654;10.014;2023-10-13T08:37:28;16.20;99.90
46508;DHT22;32223;53.654;10.014;2023-10-13T08:42:36;16.20;99.90
46508;DHT22;32223;53.654;10.014;2023-10-13T08:45:09;16.20;99.90
46508;DHT22;32223;53.654;10.014;2023-10-13T08:47:54;16.20;99.90
46508;DHT22;32223;53.654;10.014;2023-10-13T08:50:52;16.20;99.90
46508;DHT22;32223;53.654;10.014;2023-10-13T08:53:18;16.20;99.90
46508;DHT22;32223;53.654;10.014;2023-10-13T08:56:02;16.20;99.90
46508;DHT22;32223;53.654;10.014;2023-10-13T08:58:28;16.20;99.90
46508;DHT22;32223;53.654;10.014;2023-10-13T09:01:14;16.20;99.90
46508;DHT22;32223;53.654;10.014;2023-10-13T09:04:18;16.20;99.90
46508;DHT22;32223;53.654;10.014;2023-10-13T09:06:45;16.20;99.90
46508;DHT22;32223;53.654;10.014;2023-10-13T09:14:58;16.20;99.90
46508;DHT22;32223;53.654;10.014;2023-10-13T09:17:25;16.30;99.90
46508;DHT22;32223;53.654;10.014;2023-10-13T09:22:46;16.30;99.90
46508;DHT22;32223;53.654;10.014;2023-10-13T09:25:27;16.30;99.90
46508;DHT22;32223;53.654;10.014;2023-10-13T09:27:58;16.40;99.90
46508;DHT22;32223;53.654;10.014;2023-10-13T09:30:26;16.50;99.90
46508;DHT22;32223;53.654;10.014;2023-10-13T09:33:00;16.50;99.90
46508;DHT22;32223;53.654;10.014;2023-10-13T09:35:27;16.60;99.90
46508;DHT22;32223;53.654;10.014;2023-10-13T09:37:53;16.70;99.90
46508;DHT22;32223;53.654;10.014;2023-10-13T09:40:23;16.70;99.90
46508;DHT22;32223;53.654;10.014;2023-10-13T09:43:11;16.80;99.90
46508;DHT22;32223;53.654;10.014;2023-10-13T09:45:41;17.00;99.90
46508;DHT22;32223;53.654;10.014;2023-10-13T09:48:24;17.00;99.90
46508;DHT22;32223;53.654;10.014;2023-10-13T09:51:02;17.10;99.90
46508;DHT22;32223;53.654;10.014;2023-10-13T09:53:32;17.10;99.90
46508;DHT22;32223;53.654;10.014;2023-10-13T09:56:18;17.10;99.90
46508;DHT22;32223;53.654;10.014;2023-10-13T09:59:08;17.10;99.90
46508;DHT22;32223;53.654;10.014;2023-10-13T10:01:40;17.00;99.90
46508;DHT22;32223;53.654;10.014;2023-10-13T10:04:16;17.10;99.90
46508;DHT22;32223;53.654;10.014;2023-10-13T10:06:54;17.00;99.90
46508;DHT22;32223;53.654;10.014;2023-10-13T10:09:27;17.00;99.90
46508;DHT22;32223;53.654;10.014;2023-10-13T10:15:06;17.00;99.90
46508;DHT22;32223;53.654;10.014;2023-10-13T10:17:42;17.00;99.90
46508;DHT22;32223;53.654;10.014;2023-10-13T10:20:08;17.00;99.90
46508;DHT22;32223;53.654;10.014;2023-10-13T10:22:59;17.00;99.90
46508;DHT22;32223;53.654;10.014;2023-10-13T10:25:32;17.00;99.90
46508;DHT22;32223;53.654;10.014;2023-10-13T10:28:03;17.00;99.90
46508;DHT22;32223;53.654;10.014;2023-10-13T10:30:33;17.00;99.90
46508;DHT22;32223;53.654;10.014;2023-10-13T10:33:00;17.10;99.90
46508;DHT22;32223;53.654;10.014;2023-10-13T10:35:27;17.10;99.90
46508;DHT22;32223;53.654;10.014;2023-10-13T10:38:19;17.20;99.90
46508;DHT22;32223;53.654;10.014;2023-10-13T10:40:58;17.30;99.90
46508;DHT22;32223;53.654;10.014;2023-10-13T10:43:28;17.40;99.90
46508;DHT22;32223;53.654;10.014;2023-10-13T10:46:08;17.40;99.90
46508;DHT22;32223;53.654;10.014;2023-10-13T10:48:36;17.50;99.90
46508;DHT22;32223;53.654;10.014;2023-10-13T10:51:03;17.50;99.90
46508;DHT22;32223;53.654;10.014;2023-10-13T10:53:34;17.60;99.90
46508;DHT22;32223;53.654;10.014;2023-10-13T10:56:13;17.60;99.90
46508;DHT22;32223;53.654;10.014;2023-10-13T10:58:59;17.60;99.90
46508;DHT22;32223;53.654;10.014;2023-10-13T11:01:28;17.60;99.90
46508;DHT22;32223;53.654;10.014;2023-10-13T11:04:13;17.60;99.90
46508;DHT22;32223;53.654;10.014;2023-10-13T11:06:55;17.70;99.90
46508;DHT22;32223;53.654;10.014;2023-10-13T11:09:26;17.80;99.90
46508;DHT22;32223;53.654;10.014;2023-10-13T11:11:55;17.90;99.90
46508;DHT22;32223;53.654;10.014;2023-10-13T11:14:27;18.00;99.90
46508;DHT22;32223;53.654;10.014;2023-10-13T11:16:54;18.10;99.90
46508;DHT22;32223;53.654;10.014;2023-10-13T11:19:21;18.10;99.90
46508;DHT22;32223;53.654;10.014;2023-10-13T11:22:13;18.20;99.90
46508;DHT22;32223;53.654;10.014;2023-10-13T11:24:55;18.30;99.90
46508;DHT22;32223;53.654;10.014;2023-10-13T11:27:31;18.30;99.90
46508;DHT22;32223;53.654;10.014;2023-10-13T11:30:13;18.30;99.90
46508;DHT22;32223;53.654;10.014;2023-10-13T11:32:41;18.40;99.90
46508;DHT22;32223;53.654;10.014;2023-10-13T11:35:08;18.50;99.90
46508;DHT22;32223;53.654;10.014;2023-10-13T11:37:49;18.60;99.90
46508;DHT22;32223;53.654;10.014;2023-10-13T11:40:22;18.60;99.90
46508;DHT22;32223;53.654;10.014;2023-10-13T11:43:07;18.70;99.90
46508;DHT22;32223;53.654;10.014;2023-10-13T11:45:39;18.80;99.90
46508;DHT22;32223;53.654;10.014;2023-10-13T11:48:18;19.00;99.90
46508;DHT22;32223;53.654;10.014;2023-10-13T11:50:59;19.10;99.90
46508;DHT22;32223;53.654;10.014;2023-10-13T11:53:25;19.20;99.90
46508;DHT22;32223;53.654;10.014;2023-10-13T11:55:53;19.30;99.90
46508;DHT22;32223;53.654;10.014;2023-10-13T11:58:18;19.30;99.90
46508;DHT22;32223;53.654;10.014;2023-10-13T12:00:44;19.40;99.90
46508;DHT22;32223;53.654;10.014;2023-10-13T12:03:28;19.50;99.90
46508;DHT22;32223;53.654;10.014;2023-10-13T12:06:12;19.70;99.90
46508;DHT22;32223;53.654;10.014;2023-10-13T12:09:09;19.80;99.90
46508;DHT22;32223;53.654;10.014;2023-10-13T12:11:52;20.00;99.90
46508;DHT22;32223;53.654;10.014;2023-10-13T12:14:20;20.00;99.90
46508;DHT22;32223;53.654;10.014;2023-10-13T12:17:06;20.10;99.90
46508;DHT22;32223;53.654;10.014;2023-10-13T12:19:36;20.20;99.90
46508;DHT22;32223;53.654;10.014;2023-10-13T12:22:02;20.20;99.90
46508;DHT22;32223;53.654;10.014;2023-10-13T12:24:34;20.20;99.90
46508;DHT22;32223;53.654;10.014;2023-10-13T12:27:03;20.20;99.90
46508;DHT22;32223;53.654;10.014;2023-10-13T12:29:47;20.10;99.90
46508;DHT22;32223;53.654;10.014;2023-10-13T12:32:13;20.00;99.90
46508;DHT22;32223;53.654;10.014;2023-10-13T12:34:41;20.00;99.90
46508;DHT22;32223;53.654;10.014;2023-10-13T12:37:28;20.00;99.90
46508;DHT22;32223;53.654;10.014;2023-10-13T12:40:14;20.10;99.90
46508;DHT22;32223;53.654;10.014;2023-10-13T12:42:59;20.10;99.90
46508;DHT22;32223;53.654;10.014;2023-10-13T12:45:44;20.10;99.90
46508;DHT22;32223;53.654;10.014;2023-10-13T12:48:29;20.20;99.90
46508;DHT22;32223;53.654;10.014;2023-10-13T12:51:13;20.30;99.90
46508;DHT22;32223;53.654;10.014;2023-10-13T12:56:12;20.30;99.90
46508;DHT22;32223;53.654;10.014;2023-10-13T12:58:38;20.30;99.90
46508;DHT22;32223;53.654;10.014;2023-10-13T13:01:03;20.30;99.90
46508;DHT22;32223;53.654;10.014;2023-10-13T13:03:31;20.30;99.90
46508;DHT22;32223;53.654;10.014;2023-10-13T13:05:58;20.40;99.90
46508;DHT22;32223;53.654;10.014;2023-10-13T13:08:24;20.40;99.90
46508;DHT22;32223;53.654;10.014;2023-10-13T13:10:50;20.40;99.90
46508;DHT22;32223;53.654;10.014;2023-10-13T13:13:17;20.60;99.90
46508;DHT22;32223;53.654;10.014;2023-10-13T13:15:50;20.60;99.90
46508;DHT22;32223;53.654;10.014;2023-10-13T13:18:15;20.70;99.90
46508;DHT22;32223;53.654;10.014;2023-10-13T13:20:41;20.70;99.90
46508;DHT22;32223;53.654;10.014;2023-10-13T13:23:19;20.70;99.90
46508;DHT22;32223;53.654;10.014;2023-10-13T13:25:47;20.60;99.90
46508;DHT22;32223;53.654;10.014;2023-10-13T13:28:14;20.60;99.90
46508;DHT22;32223;53.654;10.014;2023-10-13T13:30:44;20.50;99.90
46508;DHT22;32223;53.654;10.014;2023-10-13T13:33:09;20.50;99.90
46508;DHT22;32223;53.654;10.014;2023-10-13T13:35:41;20.60;99.90
46508;DHT22;32223;53.654;10.014;2023-10-13T13:38:10;20.60;99.90
46508;DHT22;32223;53.654;10.014;2023-10-13T13:40:37;20.70;99.90
46508;DHT22;32223;53.654;10.014;2023-10-13T13:43:03;21.00;99.90
46508;DHT22;32223;53.654;10.014;2023-10-13T13:45:29;21.20;99.90
46508;DHT22;32223;53.654;10.014;2023-10-13T13:47:55;21.20;99.90
46508;DHT22;32223;53.654;10.014;2023-10-13T13:50:27;21.20;99.90
46508;DHT22;32223;53.654;10.014;2023-10-13T13:52:55;21.10;99.90
46508;DHT22;32223;53.654;10.014;2023-10-13T13:55:25;21.00;99.90
46508;DHT22;32223;53.654;10.014;2023-10-13T13:57:56;20.90;99.90
46508;DHT22;32223;53.654;10.014;2023-10-13T14:00:22;20.90;99.90
46508;DHT22;32223;53.654;10.014;2023-10-13T14:03:05;20.80;99.90
46508;DHT22;32223;53.654;10.014;2023-10-13T14:05:41;20.70;99.90
46508;DHT22;32223;53.654;10.014;2023-10-13T14:08:06;20.70;99.90
46508;DHT22;32223;53.654;10.014;2023-10-13T14:10:39;20.70;99.90
46508;DHT22;32223;53.654;10.014;2023-10-13T14:13:24;20.60;99.90
46508;DHT22;32223;53.654;10.014;2023-10-13T14:16:10;20.50;99.90
46508;DHT22;32223;53.654;10.014;2023-10-13T14:18:51;20.50;99.90
46508;DHT22;32223;53.654;10.014;2023-10-13T14:21:17;20.40;99.90
46508;DHT22;32223;53.654;10.014;2023-10-13T14:23:47;20.40;99.90
46508;DHT22;32223;53.654;10.014;2023-10-13T14:26:15;20.30;99.90
46508;DHT22;32223;53.654;10.014;2023-10-13T14:28:45;20.20;99.90
46508;DHT22;32223;53.654;10.014;2023-10-13T14:31:30;20.10;99.90
46508;DHT22;32223;53.654;10.014;2023-10-13T14:33:56;20.10;99.90
46508;DHT22;32223;53.654;10.014;2023-10-13T14:36:22;20.10;99.90
46508;DHT22;32223;53.654;10.014;2023-10-13T14:38:48;20.10;99.90
46508;DHT22;32223;53.654;10.014;2023-10-13T14:41:18;20.10;99.90
46508;DHT22;32223;53.654;10.014;2023-10-13T14:43:44;20.10;99.90
46508;DHT22;32223;53.654;10.014;2023-10-13T14:46:14;20.10;99.90
46508;DHT22;32223;53.654;10.014;2023-10-13T14:48:40;20.10;99.90
46508;DHT22;32223;53.654;10.014;2023-10-13T14:51:12;20.10;99.90
46508;DHT22;32223;53.654;10.014;2023-10-13T14:53:41;20.10;99.90
46508;DHT22;32223;53.654;10.014;2023-10-13T14:56:13;20.20;99.90
46508;DHT22;32223;53.654;10.014;2023-10-13T14:58:39;20.10;99.90
46508;DHT22;32223;53.654;10.014;2023-10-13T15:01:15;20.10;99.90
46508;DHT22;32223;53.654;10.014;2023-10-13T15:03:45;20.10;99.90
46508;DHT22;32223;53.654;10.014;2023-10-13T15:06:18;20.10;99.90
46508;DHT22;32223;53.654;10.014;2023-10-13T15:08:46;20.10;99.90
46508;DHT22;32223;53.654;10.014;2023-10-13T15:11:13;20.10;99.90
46508;DHT22;32223;53.654;10.014;2023-10-13T15:13:41;20.20;99.90
46508;DHT22;32223;53.654;10.014;2023-10-13T15:16:18;20.20;99.90
46508;DHT22;32223;53.654;10.014;2023-10-13T15:18:45;20.20;99.90
46508;DHT22;32223;53.654;10.014;2023-10-13T15:21:11;20.20;99.90
46508;DHT22;32223;53.654;10.014;2023-10-13T15:23:38;20.20;99.90
46508;DHT22;32223;53.654;10.014;2023-10-13T15:26:10;20.30;99.90
46508;DHT22;32223;53.654;10.014;2023-10-13T15:28:36;20.30;99.90
46508;DHT22;32223;53.654;10.014;2023-10-13T15:31:15;20.30;99.90
46508;DHT22;32223;53.654;10.014;2023-10-13T15:33:58;20.30;99.90
46508;DHT22;32223;53.654;10.014;2023-10-13T15:36:24;20.20;99.90
46508;DHT22;32223;53.654;10.014;2023-10-13T15:38:51;20.30;99.90
46508;DHT22;32223;53.654;10.014;2023-10-13T15:41:36;20.30;99.90
46508;DHT22;32223;53.654;10.014;2023-10-13T15:44:04;20.30;99.90
46508;DHT22;32223;53.654;10.014;2023-10-13T15:46:35;20.30;99.90
46508;DHT22;32223;53.654;10.014;2023-10-13T15:49:01;20.40;99.90
46508;DHT22;32223;53.654;10.014;2023-10-13T15:51:28;20.40;99.90
46508;DHT22;32223;53.654;10.014;2023-10-13T15:53:55;20.40;99.90
46508;DHT22;32223;53.654;10.014;2023-10-13T15:56:21;20.50;99.90
46508;DHT22;32223;53.654;10.014;2023-10-13T15:58:47;20.40;99.90
46508;DHT22;32223;53.654;10.014;2023-10-13T16:01:13;20.40;99.90
46508;DHT22;32223;53.654;10.014;2023-10-13T16:03:40;20.40;99.90
46508;DHT22;32223;53.654;10.014;2023-10-13T16:06:10;20.40;99.90
46508;DHT22;32223;53.654;10.014;2023-10-13T16:08:37;20.50;99.90
46508;DHT22;32223;53.654;10.014;2023-10-13T16:11:07;20.40;99.90
46508;DHT22;32223;53.654;10.014;2023-10-13T16:13:36;20.50;99.90
46508;DHT22;32223;53.654;10.014;2023-10-13T16:16:04;20.50;99.90
46508;DHT22;32223;53.654;10.014;2023-10-13T16:18:30;20.50;99.90